• Join FlightAware (Why Join?)
  • Login
  • US Flag 
08:33PM EST


 

Airport Tracker/Info


-or-


 

Live Flight TrackerFlight Track Log ✈ N935SS ✈ 11-Apr-2013 ✈ KBOS - KHPN

Flight Track Log - Related Links

Times and Time Zones

All times are in EDT time to prevent confusion due to time zone crossing. See the N935SS flight status page for this flight to view local times or setup timezone preferences in your user account.

Time Position Orientation Groundspeed Altitude Reporting Facility
EDT Latitude Longitude Course Direction KTS MPH feet Rate Location/Type
09:16PM 42.3667 -70.9833 241° Southwest 196 226 600  Level KA90
09:17PM 42.3667 -70.9167 90° East 219 252 2,400 3,240 Climbing KA90
09:18PM 42.3869 -70.8406 70° East 277 319 6,100 3,000 Climbing Boston Center
09:19PM 42.3753 -70.7453 99° East 277 319 8,500 3,000 Climbing Boston Center
09:20PM 42.2978 -70.7278 171° South 226 260 12,200 2,820 Climbing Boston Center
09:21PM 42.2425 -70.7856 218° Southwest 189 217 14,200 2,520 Climbing Boston Center
09:22PM 42.1326 -71.5820 241° Southwest  Level FlightAware Approximate
09:22PM 42.2186 -70.8786 251° West 199 229 17,300  Level Boston Center
09:23PM 42.2075 -70.9769 261° West 241 277 19,300 2,220 Climbing Boston Center
09:24PM 42.1922 -71.0783 259° West 268 308 21,900 1,320 Climbing Boston Center
09:25PM 42.1789 -71.1906 261° West 290 334 22,000  Climbing Boston Center
09:26PM 42.1553 -71.3200 256° West 328 377 22,000  Level Boston Center
09:27PM 42.1356 -71.4575 259° West 361 415 22,000  Level Boston Center
09:28PM 42.1078 -71.6117 256° West 374 430 22,000  Level Boston Center
09:29PM 42.0858 -71.7603 259° West 392 451 22,000  Level Boston Center
09:30PM 42.0636 -71.9033 258° West 398 458 22,000  Level Boston Center
09:31PM 42.0433 -72.0486 259° West 398 458 22,000 -300 Level Boston Center
09:32PM 42.0186 -72.1914 257° West 398 458 21,500 -1,080 Descending Boston Center
09:33PM 41.9981 -72.3311 259° West 393 452 19,900 -1,620 Descending Boston Center
09:34PM 41.9772 -72.4597 258° West 376 433 18,400 -1,560 Descending Boston Center
09:35PM 41.9586 -72.5853 259° West 352 405 16,900 -1,200 Descending Boston Center
09:36PM 41.9269 -72.7219 253° West 366 421 16,000 -720 Descending Boston Center
09:37PM 41.8767 -72.8417 241° Southwest 371 427 15,500 -840 Descending Boston Center
09:38PM 41.8281 -72.9611 241° Southwest 371 427 14,400 -1,080 Descending Boston Center
09:39PM 41.7858 -73.0636 241° Southwest 366 421 13,400 -1,140 Descending Boston Center
09:40PM 41.7331 -73.1883 240° Southwest 354 407 12,200 -720 Descending Boston Center
09:41PM 41.6928 -73.2853 241° Southwest 349 402 12,000 -600 Descending Boston Center
09:42PM 41.6397 -73.4039 239° Southwest 344 396 11,100 -900 Descending Boston Center
09:43PM 41.5931 -73.5114 240° Southwest 337 388 10,300 -900 Descending Boston Center
09:44PM 41.5567 -73.6025 242° Southwest 306 352 9,300 -1,080 Descending Boston Center
09:45PM 41.5000 -73.7333 240° Southwest 247 284 7,500 -1,200 Descending New York TRACON
09:46PM 41.4500 -73.7833 217° Southwest 270 311 6,300 -1,380 Descending New York TRACON
09:47PM 41.3833 -73.8000 191° South 251 289 4,800 -1,500 Descending New York TRACON
09:48PM 41.3167 -73.8333 201° Southwest 253 291 3,300 -900 Descending New York TRACON
09:50PM 41.2333 -73.8333 180° South 227 261 3,000 -180 Descending New York TRACON
09:51PM 41.1833 -73.8000 153° Southeast 193 222 3,000 -480 Level New York TRACON
09:52PM 41.1500 -73.7667 143° Southeast 170 196 2,100 -900 Descending New York TRACON
09:53PM 41.1167 -73.7333 143° Southeast 147 169 1,300 -780 Descending New York TRACON
09:54PM 41.0833 -73.7167 159° South 135 155 600 -720 Descending New York TRACON
09:56PM 41.0669 -73.7076 255° West  Level Estimated
10:03PM 41.0667 -73.7000 255° West  Level FlightAware Approximate